JANET44 KLAS-KXTA
Flight info
| Callsign | JANET44 |
|---|---|
| Flight time | 0h 32m |
| Altitude | 19000 |
| Route | LOHLA3 JAYSN SMKEE |
| Aircraft | B736/M-SDE2E3FGHIRWXY/LB1 |
Departure
| Time | 2026-05-04 17:45 |
|---|---|
| Airport | Harry Reid International Airport (KLAS) |
Arrival
| Time | 2026-05-04 18:18 |
|---|---|
| Airport | Homey (Area 51) Airport (KXTA) |
| Time | Latitude | Longitude | Altitude | Speed | Heading |
|---|---|---|---|---|---|
| 2026-05-04 17:35 | 36.09173 | -115.16529 | 2146 ft | 0 kts | 76° |
| 2026-05-04 17:36 | 36.09161 | -115.16499 | 2142 ft | 7 kts | 133° |
| 2026-05-04 17:36 | 36.09126 | -115.16433 | 2139 ft | 11 kts | 100° |
| 2026-05-04 17:37 | 36.09164 | -115.16344 | 2132 ft | 15 kts | 26° |
| 2026-05-04 17:37 | 36.09269 | -115.16285 | 2129 ft | 18 kts | 24° |
| 2026-05-04 17:37 | 36.09389 | -115.16214 | 2127 ft | 21 kts | 25° |
| 2026-05-04 17:37 | 36.09522 | -115.16138 | 2122 ft | 22 kts | 26° |
| 2026-05-04 17:38 | 36.09666 | -115.16056 | 2116 ft | 24 kts | 22° |
| 2026-05-04 17:38 | 36.09824 | -115.15973 | 2113 ft | 25 kts | 23° |
| 2026-05-04 17:38 | 36.09904 | -115.15922 | 2109 ft | 16 kts | 30° |
| 2026-05-04 17:38 | 36.09964 | -115.15836 | 2106 ft | 12 kts | 72° |
| 2026-05-04 17:39 | 36.09981 | -115.15760 | 2103 ft | 0 kts | 83° |
| 2026-05-04 17:44 | 36.09981 | -115.15759 | 2103 ft | 1 kts | 84° |
| 2026-05-04 17:44 | 36.09972 | -115.15696 | 2102 ft | 16 kts | 115° |
| 2026-05-04 17:44 | 36.09869 | -115.15700 | 2100 ft | 29 kts | 205° |
| 2026-05-04 17:44 | 36.09329 | -115.16011 | 2112 ft | 140 kts | 204° |
| 2026-05-04 17:45 | 36.08240 | -115.16638 | 2693 ft | 190 kts | 202° |
| 2026-05-04 17:45 | 36.06927 | -115.17343 | 3635 ft | 229 kts | 204° |
| 2026-05-04 17:45 | 36.05390 | -115.18154 | 4116 ft | 249 kts | 210° |
| 2026-05-04 17:45 | 36.04316 | -115.19718 | 4550 ft | 244 kts | 249° |
| 2026-05-04 17:46 | 36.04255 | -115.21882 | 5044 ft | 262 kts | 277° |
| 2026-05-04 17:46 | 36.04962 | -115.23984 | 5649 ft | 274 kts | 300° |
| 2026-05-04 17:46 | 36.06100 | -115.25932 | 6310 ft | 286 kts | 303° |
| 2026-05-04 17:46 | 36.07448 | -115.27751 | 6909 ft | 292 kts | 322° |
| 2026-05-04 17:47 | 36.09318 | -115.28738 | 7904 ft | 294 kts | 342° |
| 2026-05-04 17:47 | 36.11314 | -115.29313 | 8924 ft | 301 kts | 346° |
| 2026-05-04 17:47 | 36.13386 | -115.29839 | 9941 ft | 305 kts | 346° |
| 2026-05-04 17:47 | 36.15471 | -115.30387 | 10899 ft | 308 kts | 343° |
| 2026-05-04 17:48 | 36.17394 | -115.31485 | 11836 ft | 304 kts | 316° |
| 2026-05-04 17:48 | 36.18716 | -115.33470 | 12884 ft | 298 kts | 294° |
| 2026-05-04 17:48 | 36.19569 | -115.35810 | 13916 ft | 301 kts | 288° |
| 2026-05-04 17:48 | 36.20361 | -115.38227 | 14883 ft | 304 kts | 287° |
| 2026-05-04 17:49 | 36.21144 | -115.40647 | 15888 ft | 307 kts | 286° |
| 2026-05-04 17:49 | 36.21951 | -115.43113 | 16874 ft | 310 kts | 286° |
| 2026-05-04 17:49 | 36.22773 | -115.45596 | 17909 ft | 311 kts | 285° |
| 2026-05-04 17:49 | 36.23607 | -115.48105 | 18615 ft | 323 kts | 285° |
| 2026-05-04 17:50 | 36.24501 | -115.50771 | 18827 ft | 348 kts | 285° |
| 2026-05-04 17:50 | 36.25453 | -115.53632 | 18887 ft | 370 kts | 287° |
| 2026-05-04 17:50 | 36.26743 | -115.56524 | 18886 ft | 398 kts | 299° |
| 2026-05-04 17:50 | 36.28457 | -115.59322 | 18878 ft | 417 kts | 302° |
| 2026-05-04 17:51 | 36.30281 | -115.62195 | 18861 ft | 429 kts | 302° |
| 2026-05-04 17:51 | 36.32151 | -115.65127 | 18890 ft | 436 kts | 302° |
| 2026-05-04 17:51 | 36.34015 | -115.68073 | 18848 ft | 429 kts | 301° |
| 2026-05-04 17:51 | 36.35809 | -115.70928 | 18877 ft | 421 kts | 301° |
| 2026-05-04 17:52 | 36.37600 | -115.73822 | 18845 ft | 424 kts | 301° |
| 2026-05-04 17:52 | 36.39395 | -115.76719 | 18859 ft | 421 kts | 301° |
| 2026-05-04 17:52 | 36.41170 | -115.79602 | 18850 ft | 420 kts | 301° |
| 2026-05-04 17:52 | 36.42922 | -115.82451 | 18849 ft | 420 kts | 301° |
| 2026-05-04 17:53 | 36.44732 | -115.85364 | 18849 ft | 422 kts | 302° |
| 2026-05-04 17:53 | 36.46525 | -115.88257 | 18810 ft | 423 kts | 301° |
| 2026-05-04 17:53 | 36.48243 | -115.91176 | 18836 ft | 424 kts | 300° |
| 2026-05-04 17:53 | 36.50053 | -115.94091 | 18825 ft | 429 kts | 306° |
| 2026-05-04 17:54 | 36.52427 | -115.96435 | 18856 ft | 445 kts | 324° |
| 2026-05-04 17:54 | 36.55366 | -115.97819 | 18823 ft | 459 kts | 342° |
| 2026-05-04 17:54 | 36.58586 | -115.98078 | 18846 ft | 471 kts | 1° |
| 2026-05-04 17:54 | 36.61783 | -115.97046 | 18848 ft | 481 kts | 21° |
| 2026-05-04 17:55 | 36.64595 | -115.94799 | 18829 ft | 480 kts | 41° |
| 2026-05-04 17:55 | 36.66893 | -115.91949 | 18844 ft | 455 kts | 45° |
| 2026-05-04 17:55 | 36.69021 | -115.89176 | 18832 ft | 430 kts | 46° |
| 2026-05-04 17:55 | 36.71023 | -115.86547 | 18833 ft | 408 kts | 46° |
| 2026-05-04 17:56 | 36.72942 | -115.84051 | 18822 ft | 389 kts | 45° |
| 2026-05-04 17:56 | 36.74790 | -115.81674 | 18837 ft | 378 kts | 45° |
| 2026-05-04 17:56 | 36.76608 | -115.79360 | 18830 ft | 377 kts | 45° |
| 2026-05-04 17:56 | 36.78449 | -115.77021 | 18841 ft | 378 kts | 45° |
| 2026-05-04 17:57 | 36.80301 | -115.74674 | 18831 ft | 380 kts | 45° |
| 2026-05-04 17:57 | 36.82162 | -115.72318 | 18828 ft | 381 kts | 45° |
| 2026-05-04 17:57 | 36.84023 | -115.69962 | 18814 ft | 381 kts | 45° |
| 2026-05-04 17:57 | 36.85886 | -115.67595 | 18797 ft | 380 kts | 45° |
| 2026-05-04 17:58 | 36.87739 | -115.65245 | 18790 ft | 379 kts | 44° |
| 2026-05-04 17:58 | 36.89587 | -115.62902 | 18776 ft | 378 kts | 45° |
| 2026-05-04 17:58 | 36.91424 | -115.60565 | 18771 ft | 377 kts | 45° |
| 2026-05-04 17:58 | 36.93374 | -115.58392 | 18764 ft | 375 kts | 31° |
| 2026-05-04 17:59 | 36.95737 | -115.57133 | 18753 ft | 366 kts | 7° |
| 2026-05-04 17:59 | 36.98248 | -115.56971 | 18478 ft | 360 kts | 346° |
| 2026-05-04 17:59 | 37.02956 | -115.58567 | 18032 ft | 349 kts | 335° |
| 2026-05-04 18:00 | 37.05209 | -115.59636 | 17746 ft | 344 kts | 331° |
| 2026-05-04 18:00 | 37.07381 | -115.60846 | 17501 ft | 341 kts | 329° |
| 2026-05-04 18:00 | 37.09486 | -115.62060 | 17246 ft | 339 kts | 329° |
| 2026-05-04 18:00 | 37.11632 | -115.63318 | 16965 ft | 338 kts | 329° |
| 2026-05-04 18:01 | 37.13748 | -115.64577 | 16735 ft | 336 kts | 330° |
| 2026-05-04 18:01 | 37.15840 | -115.65872 | 16477 ft | 334 kts | 329° |
| 2026-05-04 18:01 | 37.17908 | -115.67185 | 16221 ft | 333 kts | 329° |
| 2026-05-04 18:02 | 37.22013 | -115.69837 | 15713 ft | 331 kts | 329° |
| 2026-05-04 18:02 | 37.24051 | -115.71170 | 15463 ft | 330 kts | 329° |
| 2026-05-04 18:02 | 37.26085 | -115.72512 | 15212 ft | 329 kts | 329° |
| 2026-05-04 18:02 | 37.28101 | -115.73854 | 14970 ft | 328 kts | 329° |
| 2026-05-04 18:03 | 37.30116 | -115.75205 | 14726 ft | 327 kts | 329° |
| 2026-05-04 18:03 | 37.32126 | -115.76566 | 14499 ft | 327 kts | 329° |
| 2026-05-04 18:03 | 37.34101 | -115.77992 | 14255 ft | 327 kts | 328° |
| 2026-05-04 18:03 | 37.36040 | -115.79449 | 14022 ft | 329 kts | 328° |
| 2026-05-04 18:04 | 37.38005 | -115.80937 | 13775 ft | 328 kts | 328° |
| 2026-05-04 18:04 | 37.39948 | -115.82419 | 13554 ft | 327 kts | 327° |
| 2026-05-04 18:04 | 37.43828 | -115.85437 | 13027 ft | 328 kts | 327° |
| 2026-05-04 18:05 | 37.45764 | -115.86947 | 12767 ft | 328 kts | 327° |
| 2026-05-04 18:05 | 37.47701 | -115.88478 | 12505 ft | 328 kts | 326° |
| 2026-05-04 18:05 | 37.49586 | -115.90037 | 12266 ft | 327 kts | 326° |
| 2026-05-04 18:05 | 37.51471 | -115.91615 | 12060 ft | 325 kts | 326° |
| 2026-05-04 18:06 | 37.55231 | -115.94779 | 11998 ft | 321 kts | 326° |
| 2026-05-04 18:06 | 37.57070 | -115.96340 | 12005 ft | 317 kts | 326° |
| 2026-05-04 18:06 | 37.58891 | -115.97889 | 11996 ft | 314 kts | 326° |
| 2026-05-04 18:07 | 37.60666 | -115.99400 | 11970 ft | 298 kts | 324° |
| 2026-05-04 18:07 | 37.62021 | -116.01190 | 11957 ft | 271 kts | 293° |
| 2026-05-04 18:07 | 37.62317 | -116.03370 | 11994 ft | 247 kts | 258° |
| 2026-05-04 18:07 | 37.61829 | -116.05432 | 11980 ft | 242 kts | 235° |
| 2026-05-04 18:08 | 37.60637 | -116.06792 | 12017 ft | 230 kts | 200° |
| 2026-05-04 18:08 | 37.59089 | -116.07205 | 11999 ft | 227 kts | 178° |
| 2026-05-04 18:08 | 37.57534 | -116.06969 | 12005 ft | 225 kts | 167° |
| 2026-05-04 18:08 | 37.55991 | -116.06561 | 12002 ft | 227 kts | 167° |
| 2026-05-04 18:09 | 37.53024 | -116.05097 | 11454 ft | 232 kts | 144° |
| 2026-05-04 18:09 | 37.50508 | -116.02779 | 10848 ft | 214 kts | 144° |
| 2026-05-04 18:10 | 37.49319 | -116.01698 | 10538 ft | 206 kts | 144° |
| 2026-05-04 18:10 | 37.48177 | -116.00667 | 10259 ft | 197 kts | 145° |
| 2026-05-04 18:10 | 37.47079 | -115.99675 | 9993 ft | 193 kts | 145° |
| 2026-05-04 18:10 | 37.45987 | -115.98694 | 9731 ft | 193 kts | 146° |
| 2026-05-04 18:11 | 37.44888 | -115.97706 | 9442 ft | 196 kts | 145° |
| 2026-05-04 18:11 | 37.43794 | -115.96722 | 9176 ft | 194 kts | 145° |
| 2026-05-04 18:11 | 37.42697 | -115.95738 | 8889 ft | 194 kts | 145° |
| 2026-05-04 18:11 | 37.41599 | -115.94752 | 8628 ft | 192 kts | 146° |
| 2026-05-04 18:12 | 37.40514 | -115.93778 | 8363 ft | 191 kts | 145° |
| 2026-05-04 18:12 | 37.39427 | -115.92804 | 8104 ft | 192 kts | 145° |
| 2026-05-04 18:12 | 37.38346 | -115.91836 | 7841 ft | 189 kts | 146° |
| 2026-05-04 18:12 | 37.37290 | -115.90891 | 7582 ft | 187 kts | 145° |
| 2026-05-04 18:13 | 37.36234 | -115.89944 | 7331 ft | 184 kts | 145° |
| 2026-05-04 18:13 | 37.35212 | -115.89028 | 7078 ft | 173 kts | 147° |
| 2026-05-04 18:13 | 37.33349 | -115.87359 | 6636 ft | 159 kts | 147° |
| 2026-05-04 18:14 | 37.32467 | -115.86569 | 6403 ft | 157 kts | 146° |
| 2026-05-04 18:14 | 37.31562 | -115.85754 | 6189 ft | 159 kts | 148° |
| 2026-05-04 18:14 | 37.30688 | -115.84979 | 5943 ft | 147 kts | 149° |
| 2026-05-04 18:15 | 37.29050 | -115.83469 | 5581 ft | 151 kts | 145° |
| 2026-05-04 18:15 | 37.27516 | -115.81682 | 5174 ft | 147 kts | 144° |
| 2026-05-04 18:15 | 37.26671 | -115.80992 | 4868 ft | 143 kts | 154° |
| 2026-05-04 18:16 | 37.25754 | -115.80502 | 4690 ft | 142 kts | 160° |
| 2026-05-04 18:16 | 37.24855 | -115.80036 | 4501 ft | 140 kts | 159° |
| 2026-05-04 18:16 | 37.24010 | -115.79592 | 4439 ft | 120 kts | 157° |
| 2026-05-04 18:17 | 37.22755 | -115.78933 | 4437 ft | 86 kts | 158° |
| 2026-05-04 18:17 | 37.22517 | -115.78809 | 4437 ft | 79 kts | 158° |
| 2026-05-04 18:17 | 37.22085 | -115.78564 | 4437 ft | 68 kts | 160° |
| 2026-05-04 18:18 | 37.21847 | -115.78483 | 4438 ft | 11 kts | 217° |
| 2026-05-04 18:18 | 37.21826 | -115.78518 | 4438 ft | 10 kts | 241° |
| 2026-05-04 18:18 | 37.21816 | -115.78543 | 4438 ft | 10 kts | 246° |
| 2026-05-04 18:18 | 37.21805 | -115.78623 | 4438 ft | 9 kts | 276° |
| 2026-05-04 18:19 | 37.21846 | -115.78815 | 4437 ft | 16 kts | 284° |
| 2026-05-04 18:19 | 37.21880 | -115.78979 | 4437 ft | 22 kts | 285° |
| 2026-05-04 18:19 | 37.21918 | -115.79164 | 4437 ft | 22 kts | 283° |
| 2026-05-04 18:20 | 37.21890 | -115.79309 | 4437 ft | 10 kts | 241° |
| 2026-05-04 18:20 | 37.21899 | -115.79391 | 4437 ft | 11 kts | 308° |
| 2026-05-04 18:20 | 37.21960 | -115.79463 | 4437 ft | 13 kts | 321° |
| 2026-05-04 18:20 | 37.22030 | -115.79535 | 4437 ft | 15 kts | 318° |
| 2026-05-04 18:21 | 37.22119 | -115.79640 | 4437 ft | 20 kts | 320° |
| 2026-05-04 18:21 | 37.22224 | -115.79762 | 4437 ft | 21 kts | 323° |
| 2026-05-04 18:21 | 37.22346 | -115.79881 | 4437 ft | 23 kts | 320° |
| 2026-05-04 18:21 | 37.22474 | -115.80018 | 4437 ft | 25 kts | 317° |
| 2026-05-04 18:22 | 37.22610 | -115.80167 | 4437 ft | 26 kts | 318° |
| 2026-05-04 18:22 | 37.22742 | -115.80312 | 4437 ft | 24 kts | 322° |
| 2026-05-04 18:22 | 37.22864 | -115.80444 | 4437 ft | 23 kts | 319° |
| 2026-05-04 18:22 | 37.22980 | -115.80572 | 4437 ft | 22 kts | 320° |
| 2026-05-04 18:23 | 37.23091 | -115.80694 | 4438 ft | 20 kts | 316° |
| 2026-05-04 18:23 | 37.23175 | -115.80789 | 4438 ft | 14 kts | 319° |
| 2026-05-04 18:23 | 37.23247 | -115.80859 | 4438 ft | 14 kts | 314° |
| 2026-05-04 18:23 | 37.23328 | -115.80949 | 4438 ft | 16 kts | 317° |
| 2026-05-04 18:24 | 37.23412 | -115.81040 | 4437 ft | 16 kts | 318° |
| 2026-05-04 18:24 | 37.23505 | -115.81115 | 4437 ft | 16 kts | 348° |
| 2026-05-04 18:24 | 37.23603 | -115.81124 | 4437 ft | 0 kts | 356° |
| 2026-05-04 18:25 | 37.23636 | -115.81127 | 4438 ft | 10 kts | 356° |
| 2026-05-04 18:25 | 37.23682 | -115.81173 | 4438 ft | 10 kts | 264° |
| 2026-05-04 18:25 | 37.23710 | -115.81233 | 4438 ft | 9 kts | 343° |
| 2026-05-04 18:26 | 37.23731 | -115.81239 | 4439 ft | 0 kts | 352° |
| 2026-05-04 18:26 | 37.23740 | -115.81240 | 4436 ft | 3 kts | 0° |
| 2026-05-04 18:26 | 37.23753 | -115.81222 | 4437 ft | 3 kts | 71° |
| 2026-05-04 18:26 | 37.23755 | -115.81208 | 4437 ft | 1 kts | 79° |
| 2026-05-04 18:27 | 37.23756 | -115.81198 | 4437 ft | 1 kts | 85° |
| 2026-05-04 18:27 | 37.23757 | -115.81187 | 4436 ft | 1 kts | 86° |
| 2026-05-04 18:27 | 37.23757 | -115.81186 | 4436 ft | 0 kts | 86° |
| 2026-05-04 18:29 | 37.23794 | -115.81187 | 4438 ft | 0 kts | 87° |